Time;durP1;ratioP1;P1;durP2;ratioP2;P2;SDS_P1;SDS_P2;PMS_P1;PMS_P2;Temp;Humidity;BMP_temperature;BMP_pressure;BME280_temperature;BME280_humidity;BME280_pressure;Samples;Min_cycle;Max_cycle;Signal;HPM_P1;HPM_P2
2023/04/19 00:01:40;;;;;;;;;21.50;16.00;;;;;11.23;67.68;100921.25;5095374;28;8840;-60
2023/04/19 00:04:08;;;;;;;;;23.00;20.50;;;;;11.19;68.01;100923.28;5094682;28;8952;-60
2023/04/19 00:06:36;;;;;;;;;17.00;14.25;;;;;11.17;67.99;100913.66;5094636;28;8825;-61
2023/04/19 00:09:06;;;;;;;;;21.25;18.00;;;;;11.15;68.13;100897.75;5094679;28;8919;-59
2023/04/19 00:11:33;;;;;;;;;19.50;18.00;;;;;11.12;68.08;100900.66;5094858;28;9492;-60
2023/04/19 00:14:01;;;;;;;;;18.25;13.00;;;;;11.10;68.33;100907.91;5095283;28;8921;-60
2023/04/19 00:16:29;;;;;;;;;18.00;16.50;;;;;11.09;68.93;100908.81;5095274;28;8834;-59
2023/04/19 00:18:56;;;;;;;;;21.25;17.50;;;;;11.07;68.65;100894.75;5095829;28;8960;-60
2023/04/19 00:21:25;;;;;;;;;23.00;19.25;;;;;11.06;68.69;100900.22;5095464;28;8806;-60
2023/04/19 00:23:52;;;;;;;;;24.25;21.25;;;;;11.05;69.65;100902.00;5095811;28;8837;-61
2023/04/19 00:26:21;;;;;;;;;28.50;26.00;;;;;11.04;69.97;100891.44;5096288;28;8826;-61
2023/04/19 00:28:48;;;;;;;;;20.00;18.50;;;;;11.02;69.86;100896.91;5096048;28;8822;-58
2023/04/19 00:31:16;;;;;;;;;23.50;22.00;;;;;11.03;69.67;100893.28;5095954;28;8830;-60
2023/04/19 00:33:44;;;;;;;;;29.50;23.50;;;;;11.05;70.01;100901.13;5095806;28;8829;-61
2023/04/19 00:36:11;;;;;;;;;24.75;22.50;;;;;11.06;69.91;100897.56;5096140;28;8818;-61
2023/04/19 00:38:39;;;;;;;;;26.50;25.75;;;;;11.07;69.69;100894.75;5095749;28;8817;-59
2023/04/19 00:41:07;;;;;;;;;21.25;19.00;;;;;11.09;69.64;100892.84;5095875;28;8846;-60
2023/04/19 00:43:35;;;;;;;;;21.00;18.50;;;;;11.09;69.76;100890.16;5096717;28;8830;-60
2023/04/19 00:46:02;;;;;;;;;25.00;21.25;;;;;11.11;69.92;100888.28;5094776;28;8836;-58
2023/04/19 00:48:30;;;;;;;;;12.75;10.00;;;;;11.13;69.39;100897.03;5094485;28;8810;-59
2023/04/19 00:51:00;;;;;;;;;24.25;22.50;;;;;11.15;69.33;100891.59;5093856;28;8980;-60
2023/04/19 00:53:28;;;;;;;;;20.25;20.00;;;;;11.15;69.64;100889.78;5094219;28;9504;-59
2023/04/19 00:55:56;;;;;;;;;23.00;20.00;;;;;11.17;69.29;100890.53;5094202;28;8814;-60
2023/04/19 00:58:23;;;;;;;;;13.00;11.50;;;;;11.18;70.01;100888.72;5094509;28;8810;-60
2023/04/19 01:00:51;;;;;;;;;18.50;16.00;;;;;11.18;69.18;100889.59;5095380;28;8866;-61
2023/04/19 01:03:19;;;;;;;;;16.25;14.75;;;;;11.19;69.24;100891.28;5095362;28;8878;-58
2023/04/19 01:05:47;;;;;;;;;15.50;13.00;;;;;11.21;69.59;100888.53;5095868;28;9520;-63
2023/04/19 01:08:15;;;;;;;;;21.75;20.75;;;;;11.20;69.19;100889.47;5095753;28;8841;-61
2023/04/19 01:10:43;;;;;;;;;15.25;14.25;;;;;11.21;68.99;100885.88;5091308;28;8835;-61
2023/04/19 01:13:11;;;;;;;;;17.75;15.75;;;;;11.20;69.25;100885.00;5095199;28;8818;-60
2023/04/19 01:15:39;;;;;;;;;19.25;18.00;;;;;11.22;68.86;100883.06;5095989;28;9801;-62
2023/04/19 01:18:07;;;;;;;;;22.00;21.00;;;;;11.21;69.26;100878.69;5095694;28;8860;-59
2023/04/19 01:20:34;;;;;;;;;18.25;16.00;;;;;11.23;68.83;100862.63;5095286;28;8802;-60
2023/04/19 01:23:02;;;;;;;;;22.50;19.50;;;;;11.23;69.08;100867.94;5095999;28;8814;-59
2023/04/19 01:25:30;;;;;;;;;19.00;17.50;;;;;11.22;69.12;100867.06;5095937;28;8834;-61
2023/04/19 01:27:57;;;;;;;;;24.75;19.00;;;;;11.23;69.16;100870.59;5095297;28;8810;-61
2023/04/19 01:30:25;;;;;;;;;19.00;18.00;;;;;11.21;69.22;100873.38;5095809;28;8853;-61
2023/04/19 01:32:53;;;;;;;;;23.50;20.50;;;;;11.22;68.92;100867.06;5095612;28;9468;-60
2023/04/19 01:35:21;;;;;;;;;23.00;22.00;;;;;11.21;69.43;100865.38;5095794;28;8830;-61
2023/04/19 01:37:49;;;;;;;;;19.00;16.00;;;;;11.20;68.35;100869.00;5095070;28;8837;-60
2023/04/19 01:40:17;;;;;;;;;23.25;19.50;;;;;11.19;68.78;100872.63;5075218;28;8812;-61
2023/04/19 01:42:45;;;;;;;;;24.75;21.50;;;;;11.18;69.09;100862.06;5075123;28;8827;-61
2023/04/19 01:45:12;;;;;;;;;25.50;21.50;;;;;11.17;69.31;100858.56;5075594;28;8824;-61
2023/04/19 01:47:40;;;;;;;;;21.00;19.00;;;;;11.17;69.53;100860.34;5078838;28;8840;-61
2023/04/19 01:50:08;;;;;;;;;20.50;20.25;;;;;11.16;68.74;100866.66;5097757;28;8794;-62
2023/04/19 01:52:36;;;;;;;;;22.50;20.00;;;;;11.16;69.24;100864.81;5099524;28;8914;-61
2023/04/19 01:55:04;;;;;;;;;22.50;19.00;;;;;11.17;68.80;100863.03;5099273;28;8818;-62
2023/04/19 01:57:32;;;;;;;;;21.50;20.00;;;;;11.15;69.22;100863.13;5099123;28;8814;-61
2023/04/19 02:00:00;;;;;;;;;15.00;14.50;;;;;11.14;68.83;100858.75;5098753;28;9574;-62
2023/04/19 02:02:27;;;;;;;;;22.00;19.25;;;;;11.15;69.45;100865.78;5099205;28;8856;-61
2023/04/19 02:04:55;;;;;;;;;13.75;12.75;;;;;11.15;69.25;100856.94;5099081;28;8968;-61
2023/04/19 02:07:23;;;;;;;;;24.50;23.00;;;;;11.14;68.96;100858.75;5098540;28;8818;-61
2023/04/19 02:09:51;;;;;;;;;17.25;15.00;;;;;11.14;69.19;100863.25;5099299;28;8846;-60
2023/04/19 02:12:18;;;;;;;;;17.75;17.50;;;;;11.13;68.92;100851.72;5099136;28;8818;-61
2023/04/19 02:14:46;;;;;;;;;17.00;14.50;;;;;11.13;68.59;100851.72;5098915;28;8822;-61
2023/04/19 02:17:14;;;;;;;;;13.75;13.25;;;;;11.13;69.43;100851.72;5098514;28;8829;-61
2023/04/19 02:19:43;;;;;;;;;9.00;9.00;;;;;11.13;68.98;100857.03;5099176;28;8834;-61
2023/04/19 02:22:10;;;;;;;;;14.00;13.00;;;;;11.12;68.70;100852.66;5098703;28;8838;-61
2023/04/19 02:24:38;;;;;;;;;13.00;12.25;;;;;11.14;69.33;100857.91;5098484;28;8821;-61
2023/04/19 02:27:05;;;;;;;;;10.00;9.75;;;;;11.13;69.19;100859.69;5098707;28;8806;-61
2023/04/19 02:29:33;;;;;;;;;10.50;10.00;;;;;11.11;69.32;100858.97;5098805;28;8822;-61
2023/04/19 02:32:04;;;;;;;;;12.00;9.00;;;;;11.10;68.89;100859.91;5098759;28;8903;-61
2023/04/19 02:34:32;;;;;;;;;6.75;6.75;;;;;11.09;69.17;100863.53;5098483;28;8806;-61
2023/04/19 02:37:00;;;;;;;;;8.75;8.75;;;;;11.08;68.76;100859.16;5098014;28;8806;-61
2023/04/19 02:39:27;;;;;;;;;8.25;6.75;;;;;11.08;69.19;100863.66;5098477;28;8842;-61
2023/04/19 02:41:56;;;;;;;;;9.25;7.00;;;;;11.07;69.11;100854.78;5098627;28;8814;-61
2023/04/19 02:44:24;;;;;;;;;7.00;7.00;;;;;11.07;68.77;100867.28;5099136;28;8830;-61
2023/04/19 02:46:52;;;;;;;;;8.50;6.75;;;;;11.05;69.09;100848.69;5098020;28;8800;-60
2023/04/19 02:49:20;;;;;;;;;9.00;7.50;;;;;11.04;68.53;100857.66;5098380;28;8830;-59
2023/04/19 02:51:47;;;;;;;;;7.00;6.00;;;;;11.03;68.74;100858.63;5097898;28;8842;-61
2023/04/19 02:54:15;;;;;;;;;6.00;6.00;;;;;11.02;69.07;100866.72;5098118;28;8958;-59
2023/04/19 02:56:43;;;;;;;;;9.50;9.50;;;;;11.00;68.42;100856.13;5097587;28;8829;-60
2023/04/19 02:59:10;;;;;;;;;3.75;3.00;;;;;11.00;68.95;100858.81;5097818;28;8830;-62
2023/04/19 03:01:38;;;;;;;;;7.50;6.00;;;;;10.98;68.52;100852.72;5097713;28;8865;-61
2023/04/19 03:04:06;;;;;;;;;6.00;3.75;;;;;10.96;68.77;100849.31;5097627;28;8860;-60
2023/04/19 03:06:34;;;;;;;;;6.25;6.25;;;;;10.95;68.46;100855.63;5097821;28;8903;-60
2023/04/19 03:09:02;;;;;;;;;9.00;7.00;;;;;10.93;68.14;100854.84;5098225;28;8822;-61
2023/04/19 03:11:29;;;;;;;;;7.00;7.00;;;;;10.91;68.49;100854.09;5097856;28;8829;-61
2023/04/19 03:13:57;;;;;;;;;4.50;3.00;;;;;10.91;68.64;100851.44;5097869;28;8818;-60
2023/04/19 03:16:25;;;;;;;;;9.25;6.50;;;;;10.90;68.38;100849.72;5097250;28;8830;-61
2023/04/19 03:18:53;;;;;;;;;4.00;3.00;;;;;10.89;68.67;100850.69;5096986;28;8822;-60
2023/04/19 03:21:25;;;;;;;;;9.00;6.50;;;;;10.86;68.39;100848.22;5097168;28;8826;-60
2023/04/19 03:23:53;;;;;;;;;6.00;5.00;;;;;10.84;68.18;100844.81;5097229;28;8822;-60
2023/04/19 03:26:21;;;;;;;;;6.25;6.25;;;;;10.83;68.11;100845.75;5097368;28;8842;-61
2023/04/19 03:28:49;;;;;;;;;7.00;7.00;;;;;10.81;68.60;100838.81;5097227;28;8836;-59
2023/04/19 03:31:17;;;;;;;;;6.25;6.25;;;;;10.78;68.15;100834.53;5097602;28;8860;-60
2023/04/19 03:33:45;;;;;;;;;6.00;6.00;;;;;10.77;67.86;100838.16;5097579;28;8818;-61
2023/04/19 03:36:13;;;;;;;;;6.50;6.00;;;;;10.76;68.23;100841.78;5097623;28;9589;-61
2023/04/19 03:38:40;;;;;;;;;6.00;6.00;;;;;10.74;68.47;100833.06;5095976;28;8894;-61
2023/04/19 03:41:08;;;;;;;;;8.00;7.00;;;;;10.74;67.95;100830.38;5095812;28;8822;-61
2023/04/19 03:43:36;;;;;;;;;6.25;5.50;;;;;10.72;68.07;100828.78;5095962;28;8838;-59
2023/04/19 03:46:04;;;;;;;;;6.00;5.50;;;;;10.70;68.28;100831.53;5095800;28;8818;-61
2023/04/19 03:48:34;;;;;;;;;7.00;7.00;;;;;10.69;67.64;100832.50;5095664;28;8818;-60
2023/04/19 03:51:02;;;;;;;;;4.00;4.00;;;;;10.68;67.90;100838.78;5096010;28;8836;-61
2023/04/19 03:53:29;;;;;;;;;6.00;5.50;;;;;10.65;67.77;100833.66;5096535;28;8891;-61
2023/04/19 03:55:57;;;;;;;;;8.00;8.00;;;;;10.63;67.97;100829.38;5097025;28;8806;-61
2023/04/19 03:58:25;;;;;;;;;4.00;4.00;;;;;10.61;68.19;100829.47;5096644;28;8819;-61
2023/04/19 04:00:52;;;;;;;;;7.00;7.00;;;;;10.60;67.76;100829.56;5096813;28;8872;-61
2023/04/19 04:03:20;;;;;;;;;6.00;6.00;;;;;10.58;68.14;100828.81;5096754;28;8838;-61
2023/04/19 04:05:48;;;;;;;;;5.00;5.00;;;;;10.55;67.90;100824.53;5096778;28;9524;-61
2023/04/19 04:08:15;;;;;;;;;7.00;7.00;;;;;10.54;67.99;100835.31;5095615;28;8814;-61
2023/04/19 04:10:43;;;;;;;;;6.50;6.00;;;;;10.52;67.93;100835.41;5095707;28;8895;-61
2023/04/19 04:13:11;;;;;;;;;10.00;8.50;;;;;10.51;67.69;100840.81;5096278;28;8829;-61
2023/04/19 04:15:39;;;;;;;;;4.00;4.00;;;;;10.50;67.38;100836.47;5095904;28;8826;-61
2023/04/19 04:18:06;;;;;;;;;8.00;7.25;;;;;10.48;67.97;100831.22;5094697;28;8873;-59
2023/04/19 04:20:35;;;;;;;;;6.75;5.50;;;;;10.47;67.50;100845.50;5095040;28;8837;-61
2023/04/19 04:23:03;;;;;;;;;6.00;6.00;;;;;10.45;67.19;100841.22;5095315;28;8826;-61
2023/04/19 04:25:31;;;;;;;;;8.75;6.25;;;;;10.43;67.67;100838.69;5095242;28;8848;-61
2023/04/19 04:27:59;;;;;;;;;7.50;6.25;;;;;10.42;67.58;100841.44;5094734;28;8848;-60
2023/04/19 04:30:27;;;;;;;;;6.25;6.25;;;;;10.39;67.46;100842.47;5094567;28;8846;-60
2023/04/19 04:32:56;;;;;;;;;6.75;6.75;;;;;10.37;67.13;100839.06;5094570;28;8822;-62
2023/04/19 04:35:24;;;;;;;;;6.25;6.25;;;;;10.35;66.88;100851.63;5095843;28;8818;-60
2023/04/19 04:37:53;;;;;;;;;4.00;4.00;;;;;10.33;67.49;100848.19;5095591;28;8836;-60
2023/04/19 04:40:20;;;;;;;;;6.00;6.00;;;;;10.31;66.63;100849.25;5095855;28;8847;-58
2023/04/19 04:42:51;;;;;;;;;7.00;7.00;;;;;10.28;67.23;100855.63;5095187;28;8833;-61
2023/04/19 04:45:19;;;;;;;;;7.00;7.00;;;;;10.27;66.77;100851.28;5095671;28;8910;-60
2023/04/19 04:47:47;;;;;;;;;9.00;9.00;;;;;10.25;66.84;100853.16;5095206;28;8830;-59
2023/04/19 04:50:15;;;;;;;;;6.50;4.50;;;;;10.23;66.95;100849.75;5095663;28;8817;-59
2023/04/19 04:52:43;;;;;;;;;6.00;5.00;;;;;10.22;66.71;100850.69;5094951;28;8828;-61
2023/04/19 04:55:11;;;;;;;;;4.00;4.00;;;;;10.21;66.92;100848.13;5095685;28;8838;-58
2023/04/19 04:57:38;;;;;;;;;3.25;3.00;;;;;10.20;66.85;100854.41;5095871;28;8830;-61
2023/04/19 05:00:06;;;;;;;;;9.00;8.50;;;;;10.18;66.87;100857.16;5095994;28;8842;-59
2023/04/19 05:02:34;;;;;;;;;9.75;9.25;;;;;10.15;66.53;100860.03;5095326;28;8822;-61
2023/04/19 05:05:02;;;;;;;;;6.75;6.00;;;;;10.13;67.02;100861.94;5094676;28;8932;-60
2023/04/19 05:07:29;;;;;;;;;1.00;1.00;;;;;10.09;66.87;100860.41;5094877;28;8833;-59
2023/04/19 05:09:57;;;;;;;;;7.75;6.50;;;;;10.04;66.69;100857.19;5094655;28;8879;-59
2023/04/19 05:12:26;;;;;;;;;6.75;6.25;;;;;10.00;67.27;100860.94;5094850;28;8818;-61
2023/04/19 05:14:53;;;;;;;;;9.00;8.00;;;;;9.94;67.11;100861.31;5094162;28;8860;-61
2023/04/19 05:17:21;;;;;;;;;9.75;9.00;;;;;9.90;66.86;100859.81;5094505;28;8818;-61
2023/04/19 05:19:49;;;;;;;;;7.00;7.00;;;;;9.87;67.15;100856.50;5095047;28;8842;-61
2023/04/19 05:22:17;;;;;;;;;5.00;4.00;;;;;9.83;67.00;100862.94;5098116;28;8818;-61
2023/04/19 05:24:46;;;;;;;;;11.00;9.00;;;;;9.81;66.63;100871.00;5097968;28;8868;-61
2023/04/19 05:27:13;;;;;;;;;11.00;8.50;;;;;9.80;66.78;100863.97;5097971;28;8837;-62
2023/04/19 05:29:41;;;;;;;;;9.00;9.00;;;;;9.81;67.14;100871.00;5097572;28;8880;-61
2023/04/19 05:32:09;;;;;;;;;9.25;9.00;;;;;9.80;66.84;100858.66;5097531;28;8818;-62
2023/04/19 05:34:37;;;;;;;;;6.50;6.00;;;;;9.83;66.68;100868.25;5098001;28;8830;-61
2023/04/19 05:37:05;;;;;;;;;7.00;6.00;;;;;9.92;66.32;100868.56;5097140;28;8830;-59
2023/04/19 05:39:33;;;;;;;;;5.00;4.50;;;;;10.02;66.22;100864.38;5096964;28;8829;-59
2023/04/19 05:42:01;;;;;;;;;9.25;9.25;;;;;10.13;65.91;100858.41;5097340;28;8854;-59
2023/04/19 05:44:28;;;;;;;;;7.00;7.00;;;;;10.26;65.38;100859.34;5097718;28;8849;-59
2023/04/19 05:46:56;;;;;;;;;4.00;4.00;;;;;10.33;64.99;100864.16;5097157;28;8853;-58
2023/04/19 05:49:24;;;;;;;;;10.50;9.00;;;;;10.42;64.58;100858.28;5097114;28;8852;-60
2023/04/19 05:51:54;;;;;;;;;4.00;4.00;;;;;10.50;64.76;100858.63;5096382;28;8830;-61
2023/04/19 05:54:22;;;;;;;;;6.50;6.00;;;;;10.56;64.44;100854.72;5096069;28;9527;-61
2023/04/19 05:56:49;;;;;;;;;7.25;6.50;;;;;10.55;63.71;100855.66;5096254;28;8825;-60
2023/04/19 05:59:17;;;;;;;;;3.00;3.00;;;;;10.56;63.81;100850.22;5095527;28;8975;-59
2023/04/19 06:01:45;;;;;;;;;8.50;7.50;;;;;10.56;63.04;100852.03;5094324;28;8844;-58
2023/04/19 06:04:13;;;;;;;;;7.00;7.00;;;;;10.54;62.77;100853.97;5094437;28;8838;-59
2023/04/19 06:06:42;;;;;;;;;8.75;8.00;;;;;10.53;62.84;100853.09;5095163;28;8829;-61
2023/04/19 06:09:10;;;;;;;;;9.50;8.50;;;;;10.46;63.24;100853.59;5095302;28;8833;-61
2023/04/19 06:11:38;;;;;;;;;3.00;3.00;;;;;10.34;63.40;100860.56;5095582;28;8972;-59
2023/04/19 06:14:17;;;;;;;;;8.50;8.00;;;;;10.20;63.10;100857.94;5095047;28;8848;-59
2023/04/19 06:16:46;;;;;;;;;4.00;4.00;;;;;10.10;63.52;100862.09;5095538;28;8834;-58
2023/04/19 06:19:13;;;;;;;;;9.00;8.00;;;;;10.02;63.61;100858.22;5095623;28;8826;-59
2023/04/19 06:21:42;;;;;;;;;7.00;6.00;;;;;9.93;63.28;100856.13;5094913;28;8865;-59
2023/04/19 06:24:10;;;;;;;;;6.00;6.00;;;;;9.92;63.14;100857.91;5095168;28;9511;-59
2023/04/19 06:26:38;;;;;;;;;8.00;7.00;;;;;9.95;63.39;100854.22;5095018;28;8933;-59
2023/04/19 06:29:06;;;;;;;;;6.00;6.00;;;;;9.95;63.05;100857.72;5094701;28;8864;-59
2023/04/19 06:31:34;;;;;;;;;3.50;3.50;;;;;9.97;63.07;100861.16;5094361;28;8829;-60
2023/04/19 06:34:01;;;;;;;;;6.75;6.50;;;;;9.97;62.72;100857.63;5095190;28;8983;-59
2023/04/19 06:36:29;;;;;;;;;6.75;5.50;;;;;9.98;62.96;100857.53;5095229;28;8922;-59
2023/04/19 06:38:57;;;;;;;;;9.25;7.00;;;;;9.99;62.78;100858.38;5095390;28;8834;-59
2023/04/19 06:41:25;;;;;;;;;3.00;3.00;;;;;9.98;62.77;100862.88;5095614;28;8826;-59
2023/04/19 06:43:53;;;;;;;;;7.00;7.00;;;;;9.95;62.34;100856.88;5096523;28;8848;-59
2023/04/19 06:46:22;;;;;;;;;5.00;5.00;;;;;9.90;62.82;100859.81;5096261;28;8874;-58
2023/04/19 06:48:50;;;;;;;;;7.00;6.75;;;;;9.88;62.87;100861.69;5096325;28;8833;-58
2023/04/19 06:51:18;;;;;;;;;8.50;8.00;;;;;9.84;62.67;100854.00;5095615;28;8934;-59
2023/04/19 06:53:46;;;;;;;;;7.00;7.00;;;;;9.89;62.43;100858.13;5095742;28;8834;-58
2023/04/19 06:56:13;;;;;;;;;6.75;6.00;;;;;10.02;62.01;100859.03;5095359;28;8829;-58
2023/04/19 06:58:41;;;;;;;;;0.00;0.00;;;;;10.18;61.62;100866.97;5095628;28;8918;-58
2023/04/19 07:01:11;;;;;;;;;5.00;3.75;;;;;10.30;61.44;100858.19;5096292;28;8838;-58
2023/04/19 07:03:39;;;;;;;;;3.50;3.50;;;;;10.41;60.75;100863.69;5096192;28;8975;-59
2023/04/19 07:06:08;;;;;;;;;6.50;6.00;;;;;10.48;60.70;100851.69;5095906;28;8833;-58
2023/04/19 07:08:36;;;;;;;;;7.00;6.50;;;;;10.57;60.83;100846.63;5095960;28;8844;-58
2023/04/19 07:11:16;;;;;;;;;1.00;1.00;;;;;10.69;59.70;100856.47;5095837;28;8867;-58
2023/04/19 07:13:47;;;;;;;;;5.00;5.00;;;;;10.76;59.72;100846.28;5095182;28;9536;-59
2023/04/19 07:16:15;;;;;;;;;4.00;4.00;;;;;10.83;59.31;100859.09;5094588;28;8830;-59
2023/04/19 07:18:43;;;;;;;;;6.00;4.00;;;;;10.87;59.09;100847.28;5094608;28;8850;-58
2023/04/19 07:21:11;;;;;;;;;5.50;5.00;;;;;10.92;58.51;100855.81;5094845;28;8826;-59
2023/04/19 07:23:38;;;;;;;;;2.50;2.50;;;;;10.94;58.25;100856.53;5094748;28;8914;-58
2023/04/19 07:26:07;;;;;;;;;7.50;6.75;;;;;10.98;58.49;100867.84;5094782;28;8822;-58
2023/04/19 07:28:34;;;;;;;;;4.00;4.00;;;;;11.05;58.10;100863.81;5094461;28;8825;-58
2023/04/19 07:31:02;;;;;;;;;5.75;5.75;;;;;11.11;57.38;100858.09;5094827;28;8870;-59
2023/04/19 07:33:31;;;;;;;;;2.33;2.33;;;;;11.11;56.84;100852.75;5094988;28;8825;-58
2023/04/19 07:35:59;;;;;;;;;5.25;5.25;;;;;11.13;56.48;100857.03;5095260;28;8838;-59
2023/04/19 07:38:27;;;;;;;;;4.00;4.00;;;;;11.18;56.60;100849.59;5095091;28;8837;-59
2023/04/19 07:40:55;;;;;;;;;3.25;3.25;;;;;11.26;56.48;100846.41;5095659;28;8849;-59
2023/04/19 07:43:23;;;;;;;;;6.00;6.00;;;;;11.31;55.87;100850.44;5095101;28;8860;-58
2023/04/19 07:45:51;;;;;;;;;3.75;3.75;;;;;11.38;56.21;100851.75;5095287;28;8822;-60
2023/04/19 07:48:20;;;;;;;;;4.00;3.00;;;;;11.40;55.86;100849.84;5095370;28;8826;-59
2023/04/19 07:50:48;;;;;;;;;4.00;4.00;;;;;11.45;55.54;100853.03;5095639;28;8863;-59
2023/04/19 07:53:17;;;;;;;;;4.00;4.00;;;;;11.53;54.99;100844.53;5094836;28;8837;-59
2023/04/19 07:55:44;;;;;;;;;4.00;3.25;;;;;11.59;55.01;100842.31;5095144;28;8825;-59
2023/04/19 07:58:12;;;;;;;;;5.00;4.50;;;;;11.66;54.62;100853.38;5095107;28;8833;-59
2023/04/19 08:00:40;;;;;;;;;3.50;3.00;;;;;11.66;54.55;100842.72;5095086;28;8869;-61
2023/04/19 08:03:08;;;;;;;;;1.00;1.00;;;;;11.66;54.11;100846.25;5095549;28;8922;-59
2023/04/19 08:05:37;;;;;;;;;5.00;5.00;;;;;11.69;54.25;100846.03;5095099;28;8876;-59
2023/04/19 08:08:05;;;;;;;;;4.00;4.00;;;;;11.72;54.48;100856.50;5093297;28;8976;-60
2023/04/19 08:10:34;;;;;;;;;6.00;5.00;;;;;11.76;54.09;100857.16;5093552;28;8890;-59
2023/04/19 08:13:02;;;;;;;;;3.00;1.50;;;;;11.80;53.71;100854.16;5093718;28;8849;-61
2023/04/19 08:15:33;;;;;;;;;4.50;4.00;;;;;11.84;53.70;100854.78;5093460;28;8849;-60
2023/04/19 08:18:03;;;;;;;;;5.50;4.00;;;;;11.80;53.21;100854.16;5093729;28;8809;-59
2023/04/19 08:20:32;;;;;;;;;4.50;3.25;;;;;11.79;53.00;100855.13;5093455;28;8844;-60
2023/04/19 08:22:59;;;;;;;;;0.00;0.00;;;;;11.74;52.93;100851.06;5094520;28;9504;-58
2023/04/19 08:25:40;;;;;;;;;1.50;1.00;;;;;11.74;52.90;100848.41;5093769;28;8892;-60
2023/04/19 08:28:08;;;;;;;;;3.00;2.50;;;;;11.75;52.67;100850.94;5093833;28;8954;-59
2023/04/19 08:30:36;;;;;;;;;4.00;4.00;;;;;11.82;52.43;100854.88;5093858;28;8846;-59
2023/04/19 08:33:04;;;;;;;;;3.25;3.25;;;;;11.89;52.65;100852.66;5093926;28;8830;-59
2023/04/19 08:35:32;;;;;;;;;3.00;2.50;;;;;11.99;52.73;100854.53;5094948;28;9535;-58
2023/04/19 08:37:59;;;;;;;;;3.50;3.00;;;;;12.12;52.08;100850.06;5094255;28;8852;-58
2023/04/19 08:40:29;;;;;;;;;3.00;3.00;;;;;12.18;52.15;100845.16;5093774;28;8838;-58
2023/04/19 08:42:57;;;;;;;;;5.50;5.00;;;;;12.24;51.33;100842.00;5093325;28;8850;-60
2023/04/19 08:45:25;;;;;;;;;1.50;1.50;;;;;12.30;51.59;100844.25;5093998;28;8838;-59
2023/04/19 08:47:55;;;;;;;;;2.00;2.00;;;;;12.39;51.15;100840.06;5093714;28;8834;-59
2023/04/19 08:50:28;;;;;;;;;1.00;1.00;;;;;12.43;51.12;100838.84;5093864;28;8830;-59
2023/04/19 08:53:11;;;;;;;;;3.00;3.00;;;;;12.55;50.35;100832.63;5093595;28;8921;-59
2023/04/19 08:55:53;;;;;;;;;3.00;3.00;;;;;12.72;50.43;100832.22;5093631;28;8919;-61
2023/04/19 08:58:41;;;;;;;;;3.75;3.50;;;;;12.93;49.37;100827.97;5093751;28;8857;-60
2023/04/19 09:01:12;;;;;;;;;3.67;3.00;;;;;13.09;49.21;100828.53;5092762;28;9486;-61
2023/04/19 09:03:52;;;;;;;;;3.00;2.50;;;;;13.24;48.74;100822.03;5093435;28;8825;-60
2023/04/19 09:06:33;;;;;;;;;3.25;2.50;;;;;13.38;48.65;100829.84;5091940;28;8865;-59
2023/04/19 09:09:01;;;;;;;;;3.00;3.00;;;;;13.46;47.94;100822.09;5092343;28;8872;-61
2023/04/19 09:11:29;;;;;;;;;3.00;3.00;;;;;13.50;47.63;100819.03;5092533;28;8834;-62
2023/04/19 09:13:57;;;;;;;;;3.00;3.00;;;;;13.64;47.23;100826.00;5091539;28;8929;-59
2023/04/19 09:16:25;;;;;;;;;3.00;3.00;;;;;13.79;47.13;100816.75;5090729;28;8834;-59
2023/04/19 09:18:53;;;;;;;;;3.00;2.00;;;;;13.90;46.73;100814.09;5091108;28;8854;-58
2023/04/19 09:21:38;;;;;;;;;3.25;3.00;;;;;14.06;46.86;100814.59;5091744;28;8833;-60
2023/04/19 09:24:06;;;;;;;;;2.50;2.00;;;;;14.20;46.66;100831.28;5092486;28;8903;-60
2023/04/19 09:26:34;;;;;;;;;3.00;2.50;;;;;14.32;45.44;100808.84;5092476;28;8964;-60
2023/04/19 09:29:03;;;;;;;;;3.00;3.00;;;;;14.53;45.04;100808.94;5092840;28;8868;-59
2023/04/19 09:31:31;;;;;;;;;1.50;1.00;;;;;14.81;44.99;100811.03;5093295;28;8854;-62
2023/04/19 09:34:18;;;;;;;;;5.00;3.50;;;;;15.12;44.07;100804.81;5093321;28;9416;-62
2023/04/19 09:36:47;;;;;;;;;5.00;4.00;;;;;15.38;43.66;100800.78;5094216;28;8830;-61
2023/04/19 09:39:21;;;;;;;;;3.50;3.00;;;;;15.56;43.09;100788.47;5093410;28;8846;-61
2023/04/19 09:41:49;;;;;;;;;3.75;3.00;;;;;15.78;43.20;100799.88;5093899;28;8830;-61
2023/04/19 09:44:16;;;;;;;;;4.00;3.50;;;;;16.00;42.61;100788.13;5094427;28;9598;-61
2023/04/19 09:46:50;;;;;;;;;4.00;3.00;;;;;16.18;42.46;100785.47;5093667;28;8826;-61
2023/04/19 09:49:22;;;;;;;;;3.75;3.75;;;;;16.55;41.55;100775.00;5093711;28;8830;-62
2023/04/19 09:52:08;;;;;;;;;4.00;3.75;;;;;17.00;41.25;100765.41;5093317;28;8826;-63
2023/04/19 09:54:36;;;;;;;;;3.00;3.00;;;;;17.29;40.41;100766.19;5093142;28;8968;-59
2023/04/19 09:57:04;;;;;;;;;3.00;3.00;;;;;17.41;40.27;100763.25;5093656;28;8842;-59
2023/04/19 09:59:32;;;;;;;;;5.00;5.00;;;;;17.50;39.42;100756.97;5092994;28;8838;-60
2023/04/19 10:02:00;;;;;;;;;3.60;3.60;;;;;17.51;39.71;100755.13;5093171;28;8946;-63
2023/04/19 10:04:28;;;;;;;;;4.80;4.80;;;;;17.51;39.45;100755.13;5093384;28;8956;-59
2023/04/19 10:07:16;;;;;;;;;4.00;3.25;;;;;17.38;38.96;100760.00;5094702;28;8858;-59
2023/04/19 10:09:57;;;;;;;;;5.60;5.60;;;;;17.35;38.51;100761.09;5096213;28;8868;-61
2023/04/19 10:12:48;;;;;;;;;3.60;3.00;;;;;17.22;38.19;100760.53;5094593;28;8861;-61
2023/04/19 10:15:19;;;;;;;;;3.00;1.50;;;;;17.11;37.93;100763.41;5094181;28;8773;-59
2023/04/19 10:17:47;;;;;;;;;3.25;3.25;;;;;17.14;38.50;100756.84;5093954;28;8972;-60
2023/04/19 10:20:15;;;;;;;;;2.00;1.00;;;;;17.32;38.47;100760.53;5094179;28;8849;-59
2023/04/19 10:22:43;;;;;;;;;3.25;3.00;;;;;17.38;38.00;100760.00;5094663;28;8857;-60
2023/04/19 10:25:11;;;;;;;;;4.00;4.00;;;;;17.61;38.04;100751.41;5095037;28;8829;-59
2023/04/19 10:27:40;;;;;;;;;3.20;3.00;;;;;17.91;37.52;100748.44;5095104;28;8845;-59
2023/04/19 10:30:12;;;;;;;;;3.40;3.40;;;;;18.34;36.70;100739.72;5095493;28;8826;-59
2023/04/19 10:32:40;;;;;;;;;6.00;6.00;;;;;18.89;36.18;100739.44;5096003;28;9559;-60
2023/04/19 10:35:08;;;;;;;;;6.00;4.00;;;;;19.40;35.01;100731.44;5096612;28;8826;-59
2023/04/19 10:37:38;;;;;;;;;5.20;3.60;;;;;19.75;34.96;100735.88;5097129;28;8826;-60
2023/04/19 10:40:06;;;;;;;;;4.00;4.00;;;;;19.91;34.63;100726.00;5097133;28;8829;-62
2023/04/19 10:42:34;;;;;;;;;6.00;5.60;;;;;20.05;34.09;100717.31;5096757;28;8872;-61
2023/04/19 10:45:03;;;;;;;;;4.00;4.00;;;;;20.22;34.18;100719.03;5096480;28;8826;-60
2023/04/19 10:47:30;;;;;;;;;6.20;5.40;;;;;20.79;33.82;100710.84;5095803;28;8842;-61
2023/04/19 10:49:58;;;;;;;;;7.40;7.00;;;;;21.43;32.79;100718.13;5095767;28;8818;-59
2023/04/19 10:52:26;;;;;;;;;5.80;4.80;;;;;21.86;32.30;100712.28;5095091;28;8850;-60
2023/04/19 10:54:56;;;;;;;;;4.20;4.00;;;;;22.08;32.43;100701.50;5093792;28;8919;-60
2023/04/19 10:57:26;;;;;;;;;4.80;4.80;;;;;22.29;31.43;100688.16;5094264;28;8830;-59
2023/04/19 10:59:54;;;;;;;;;4.00;4.00;;;;;22.38;30.55;100702.53;5094036;28;8862;-63
2023/04/19 11:02:22;;;;;;;;;7.20;5.00;;;;;22.43;31.01;100702.84;5094929;28;8841;-62
2023/04/19 11:04:50;;;;;;;;;4.40;4.20;;;;;22.68;30.92;100690.81;5094548;28;8915;-61
2023/04/19 11:07:20;;;;;;;;;5.00;5.00;;;;;22.96;30.02;100689.22;5093478;28;8830;-60
2023/04/19 11:09:48;;;;;;;;;5.60;5.60;;;;;23.09;29.54;100684.00;5094021;28;8850;-60
2023/04/19 11:12:16;;;;;;;;;5.00;4.80;;;;;23.30;29.73;100687.72;5093542;28;8837;-60
2023/04/19 11:14:44;;;;;;;;;5.00;4.20;;;;;23.60;29.56;100681.28;5093994;28;8826;-60
2023/04/19 11:17:12;;;;;;;;;4.20;4.00;;;;;23.66;29.59;100672.38;5093851;28;8817;-60
2023/04/19 11:19:40;;;;;;;;;8.00;5.80;;;;;23.91;29.39;100671.06;5092608;28;8841;-59
2023/04/19 11:22:09;;;;;;;;;5.00;5.00;;;;;24.19;28.39;100660.34;5093965;28;8848;-61
2023/04/19 11:24:36;;;;;;;;;4.40;4.40;;;;;24.07;28.60;100667.31;5094438;28;8826;-60
2023/04/19 11:27:04;;;;;;;;;5.00;5.00;;;;;24.10;28.88;100665.06;5094147;28;8975;-59
2023/04/19 11:29:32;;;;;;;;;4.40;4.20;;;;;24.15;28.80;100657.16;5093605;28;8830;-60
2023/04/19 11:32:00;;;;;;;;;6.00;5.00;;;;;24.48;28.51;100652.06;5094698;28;8841;-60
2023/04/19 11:34:28;;;;;;;;;5.20;5.00;;;;;24.92;27.82;100629.06;5095228;28;8838;-60
2023/04/19 11:36:56;;;;;;;;;4.00;4.00;;;;;25.18;28.27;100639.31;5094974;28;8945;-62
2023/04/19 11:39:24;;;;;;;;;5.20;4.80;;;;;25.31;27.94;100643.03;5094764;28;8915;-61